sensor_id;sensor_type;location;lat;lon;timestamp;pressure;altitude;pressure_sealevel;temperature;humidity
3590;BME280;1809;48.470;9.226;2023-05-16T00:00:15;157098.59;;;9.42;100.00
3590;BME280;1809;48.470;9.226;2023-05-16T00:02:40;157093.34;;;9.40;100.00
3590;BME280;1809;48.470;9.226;2023-05-16T00:05:06;157095.97;;;9.41;100.00
3590;BME280;1809;48.470;9.226;2023-05-16T00:07:33;157099.91;;;9.43;100.00
3590;BME280;1809;48.470;9.226;2023-05-16T00:09:59;157088.13;;;9.38;100.00
3590;BME280;1809;48.470;9.226;2023-05-16T00:12:24;157088.13;;;9.38;100.00
3590;BME280;1809;48.470;9.226;2023-05-16T00:14:50;157082.94;;;9.36;100.00
3590;BME280;1809;48.470;9.226;2023-05-16T00:17:17;157090.75;;;9.39;100.00
3590;BME280;1809;48.470;9.226;2023-05-16T00:19:45;157072.47;;;9.32;100.00
3590;BME280;1809;48.470;9.226;2023-05-16T00:22:13;157067.28;;;9.30;100.00
3590;BME280;1809;48.470;9.226;2023-05-16T00:24:40;157049.00;;;9.23;100.00
3590;BME280;1809;48.470;9.226;2023-05-16T00:27:05;157059.44;;;9.27;100.00
3590;BME280;1809;48.470;9.226;2023-05-16T00:29:30;157038.53;;;9.19;100.00
3590;BME280;1809;48.470;9.226;2023-05-16T00:31:56;157034.63;;;9.17;100.00
3590;BME280;1809;48.470;9.226;2023-05-16T00:34:21;157022.88;;;9.13;100.00
3590;BME280;1809;48.470;9.226;2023-05-16T00:36:49;157029.38;;;9.15;100.00
3590;BME280;1809;48.470;9.226;2023-05-16T00:39:15;157034.63;;;9.17;100.00
3590;BME280;1809;48.470;9.226;2023-05-16T00:41:40;157051.59;;;9.24;100.00
3590;BME280;1809;48.470;9.226;2023-05-16T00:44:06;157081.63;;;9.36;100.00
3590;BME280;1809;48.470;9.226;2023-05-16T00:46:31;157064.66;;;9.29;100.00
3590;BME280;1809;48.470;9.226;2023-05-16T00:48:57;157054.19;;;9.25;100.00
3590;BME280;1809;48.470;9.226;2023-05-16T00:51:23;157043.78;;;9.21;100.00
3590;BME280;1809;48.470;9.226;2023-05-16T00:53:48;157043.78;;;9.21;100.00
3590;BME280;1809;48.470;9.226;2023-05-16T00:56:13;157045.03;;;9.22;100.00
3590;BME280;1809;48.470;9.226;2023-05-16T00:58:39;157050.31;;;9.24;100.00
3590;BME280;1809;48.470;9.226;2023-05-16T01:01:05;157043.78;;;9.21;100.00
3590;BME280;1809;48.470;9.226;2023-05-16T01:03:32;157041.16;;;9.20;100.00
3590;BME280;1809;48.470;9.226;2023-05-16T01:05:57;157037.22;;;9.18;100.00
3590;BME280;1809;48.470;9.226;2023-05-16T01:08:23;157029.38;;;9.15;100.00
3590;BME280;1809;48.470;9.226;2023-05-16T01:11:21;157016.34;;;9.10;100.00
3590;BME280;1809;48.470;9.226;2023-05-16T01:13:59;157030.69;;;9.16;100.00
3590;BME280;1809;48.470;9.226;2023-05-16T01:16:37;157035.94;;;9.18;100.00
3590;BME280;1809;48.470;9.226;2023-05-16T01:21:47;157022.88;;;9.13;100.00
3590;BME280;1809;48.470;9.226;2023-05-16T01:24:22;157017.66;;;9.11;100.00
3590;BME280;1809;48.470;9.226;2023-05-16T01:26:54;157029.38;;;9.15;100.00
3590;BME280;1809;48.470;9.226;2023-05-16T01:29:20;157045.03;;;9.22;100.00
3590;BME280;1809;48.470;9.226;2023-05-16T01:31:45;157045.03;;;9.22;100.00
3590;BME280;1809;48.470;9.226;2023-05-16T01:34:11;157043.78;;;9.21;100.00
3590;BME280;1809;48.470;9.226;2023-05-16T01:39:34;157072.47;;;9.32;100.00
3590;BME280;1809;48.470;9.226;2023-05-16T01:42:07;157097.28;;;9.42;100.00
3590;BME280;1809;48.470;9.226;2023-05-16T01:44:42;157107.75;;;9.46;100.00
3590;BME280;1809;48.470;9.226;2023-05-16T01:47:13;157123.41;;;9.52;100.00
3590;BME280;1809;48.470;9.226;2023-05-16T01:49:44;157149.53;;;9.62;100.00
3590;BME280;1809;48.470;9.226;2023-05-16T01:52:15;157154.75;;;9.64;100.00
3590;BME280;1809;48.470;9.226;2023-05-16T01:54:44;157156.06;;;9.64;100.00
3590;BME280;1809;48.470;9.226;2023-05-16T01:57:13;157169.09;;;9.69;100.00
3590;BME280;1809;48.470;9.226;2023-05-16T01:59:40;157163.88;;;9.67;100.00
3590;BME280;1809;48.470;9.226;2023-05-16T02:02:07;157175.63;;;9.72;100.00
3590;BME280;1809;48.470;9.226;2023-05-16T02:04:32;157192.59;;;9.79;100.00
3590;BME280;1809;48.470;9.226;2023-05-16T02:06:58;157217.41;;;9.88;100.00
3590;BME280;1809;48.470;9.226;2023-05-16T02:09:25;157213.53;;;9.87;100.00
3590;BME280;1809;48.470;9.226;2023-05-16T02:11:50;157213.53;;;9.87;100.00
3590;BME280;1809;48.470;9.226;2023-05-16T02:14:15;157208.28;;;9.85;100.00
3590;BME280;1809;48.470;9.226;2023-05-16T02:16:41;157189.97;;;9.78;100.00
3590;BME280;1809;48.470;9.226;2023-05-16T02:19:06;157200.44;;;9.82;100.00
3590;BME280;1809;48.470;9.226;2023-05-16T02:21:31;157210.91;;;9.86;100.00
3590;BME280;1809;48.470;9.226;2023-05-16T02:23:56;157204.38;;;9.83;100.00
3590;BME280;1809;48.470;9.226;2023-05-16T02:26:22;157214.78;;;9.87;100.00
3590;BME280;1809;48.470;9.226;2023-05-16T02:28:47;157227.88;;;9.92;100.00
3590;BME280;1809;48.470;9.226;2023-05-16T02:31:29;157243.56;;;9.98;100.00
3590;BME280;1809;48.470;9.226;2023-05-16T02:33:55;157248.75;;;10.00;100.00
3590;BME280;1809;48.470;9.226;2023-05-16T02:36:21;157256.59;;;10.03;100.00
3590;BME280;1809;48.470;9.226;2023-05-16T02:38:46;157246.19;;;9.99;100.00
3590;BME280;1809;48.470;9.226;2023-05-16T02:41:12;157247.44;;;10.00;100.00
3590;BME280;1809;48.470;9.226;2023-05-16T02:43:37;157247.44;;;10.00;100.00
3590;BME280;1809;48.470;9.226;2023-05-16T02:46:29;157259.22;;;10.04;100.00
3590;BME280;1809;48.470;9.226;2023-05-16T02:48:55;157268.38;;;10.08;100.00
3590;BME280;1809;48.470;9.226;2023-05-16T02:51:23;157286.66;;;10.15;100.00
3590;BME280;1809;48.470;9.226;2023-05-16T02:53:49;157293.25;;;10.17;100.00
3590;BME280;1809;48.470;9.226;2023-05-16T02:56:15;157297.13;;;10.19;100.00
3590;BME280;1809;48.470;9.226;2023-05-16T02:58:45;157312.81;;;10.25;100.00
3590;BME280;1809;48.470;9.226;2023-05-16T03:01:11;157297.13;;;10.19;100.00
3590;BME280;1809;48.470;9.226;2023-05-16T03:03:37;157304.97;;;10.22;100.00
3590;BME280;1809;48.470;9.226;2023-05-16T03:06:02;157302.41;;;10.21;100.00
3590;BME280;1809;48.470;9.226;2023-05-16T03:08:28;157307.59;;;10.23;100.00
3590;BME280;1809;48.470;9.226;2023-05-16T03:10:54;157325.91;;;10.30;100.00
3590;BME280;1809;48.470;9.226;2023-05-16T03:13:19;157328.47;;;10.31;100.00
3590;BME280;1809;48.470;9.226;2023-05-16T03:15:45;157333.75;;;10.33;100.00
3590;BME280;1809;48.470;9.226;2023-05-16T03:18:11;157335.06;;;10.34;100.00
3590;BME280;1809;48.470;9.226;2023-05-16T03:20:37;157336.31;;;10.34;100.00
3590;BME280;1809;48.470;9.226;2023-05-16T03:23:03;157333.75;;;10.33;100.00
3590;BME280;1809;48.470;9.226;2023-05-16T03:25:32;157346.78;;;10.38;100.00
3590;BME280;1809;48.470;9.226;2023-05-16T03:27:58;157352.00;;;10.40;100.00
3590;BME280;1809;48.470;9.226;2023-05-16T03:30:23;157345.47;;;10.38;100.00
3590;BME280;1809;48.470;9.226;2023-05-16T03:32:51;157372.94;;;10.48;100.00
3590;BME280;1809;48.470;9.226;2023-05-16T03:35:17;157367.69;;;10.46;100.00
3590;BME280;1809;48.470;9.226;2023-05-16T03:37:43;157352.00;;;10.40;100.00
3590;BME280;1809;48.470;9.226;2023-05-16T03:40:09;157362.47;;;10.44;100.00
3590;BME280;1809;48.470;9.226;2023-05-16T03:42:38;157370.31;;;10.47;100.00
3590;BME280;1809;48.470;9.226;2023-05-16T03:45:04;157367.69;;;10.46;100.00
3590;BME280;1809;48.470;9.226;2023-05-16T03:47:33;157369.00;;;10.47;100.00
3590;BME280;1809;48.470;9.226;2023-05-16T03:49:59;157366.41;;;10.46;100.00
3590;BME280;1809;48.470;9.226;2023-05-16T03:52:27;157375.50;;;10.49;100.00
3590;BME280;1809;48.470;9.226;2023-05-16T03:54:53;157388.59;;;10.54;100.00
3590;BME280;1809;48.470;9.226;2023-05-16T03:57:19;157383.41;;;10.52;100.00
3590;BME280;1809;48.470;9.226;2023-05-16T03:59:44;157406.91;;;10.61;100.00
3590;BME280;1809;48.470;9.226;2023-05-16T04:02:10;157405.59;;;10.61;100.00
3590;BME280;1809;48.470;9.226;2023-05-16T04:04:36;157419.97;;;10.66;100.00
3590;BME280;1809;48.470;9.226;2023-05-16T04:07:01;157427.81;;;10.69;100.00
3590;BME280;1809;48.470;9.226;2023-05-16T04:09:27;157446.13;;;10.76;100.00
3590;BME280;1809;48.470;9.226;2023-05-16T04:11:53;157412.13;;;10.63;100.00
3590;BME280;1809;48.470;9.226;2023-05-16T04:14:21;157425.16;;;10.68;100.00
3590;BME280;1809;48.470;9.226;2023-05-16T04:16:47;157427.81;;;10.69;100.00
3590;BME280;1809;48.470;9.226;2023-05-16T04:19:12;157443.47;;;10.75;100.00
3590;BME280;1809;48.470;9.226;2023-05-16T04:21:39;157434.31;;;10.72;100.00
3590;BME280;1809;48.470;9.226;2023-05-16T04:24:05;157482.69;;;10.91;100.00
3590;BME280;1809;48.470;9.226;2023-05-16T04:26:31;157491.84;;;10.94;100.00
3590;BME280;1809;48.470;9.226;2023-05-16T04:28:56;157480.09;;;10.90;100.00
3590;BME280;1809;48.470;9.226;2023-05-16T04:31:24;157501.00;;;10.98;100.00
3590;BME280;1809;48.470;9.226;2023-05-16T04:33:50;157489.22;;;10.93;100.00
3590;BME280;1809;48.470;9.226;2023-05-16T04:36:16;157508.84;;;11.01;100.00
3590;BME280;1809;48.470;9.226;2023-05-16T04:38:42;157527.16;;;11.08;100.00
3590;BME280;1809;48.470;9.226;2023-05-16T04:41:08;157519.31;;;11.05;100.00
3590;BME280;1809;48.470;9.226;2023-05-16T04:43:33;157525.84;;;11.07;100.00
3590;BME280;1809;48.470;9.226;2023-05-16T04:46:00;157520.56;;;11.05;100.00
3590;BME280;1809;48.470;9.226;2023-05-16T04:48:28;157532.38;;;11.10;100.00
3590;BME280;1809;48.470;9.226;2023-05-16T04:50:54;157511.47;;;11.02;100.00
3590;BME280;1809;48.470;9.226;2023-05-16T04:53:19;157537.56;;;11.12;100.00
3590;BME280;1809;48.470;9.226;2023-05-16T04:55:45;157499.69;;;10.97;100.00
3590;BME280;1809;48.470;9.226;2023-05-16T04:58:10;157506.22;;;11.00;100.00
3590;BME280;1809;48.470;9.226;2023-05-16T05:00:37;157493.16;;;10.95;100.00
3590;BME280;1809;48.470;9.226;2023-05-16T05:03:02;157487.94;;;10.93;100.00
3590;BME280;1809;48.470;9.226;2023-05-16T05:05:28;157484.00;;;10.91;100.00
3590;BME280;1809;48.470;9.226;2023-05-16T05:07:53;157502.31;;;10.98;100.00
3590;BME280;1809;48.470;9.226;2023-05-16T05:10:19;157487.94;;;10.93;100.00
3590;BME280;1809;48.470;9.226;2023-05-16T05:12:44;157516.69;;;11.04;100.00
3590;BME280;1809;48.470;9.226;2023-05-16T05:15:09;157525.84;;;11.07;100.00
3590;BME280;1809;48.470;9.226;2023-05-16T05:17:35;157552.00;;;11.17;100.00
3590;BME280;1809;48.470;9.226;2023-05-16T05:20:02;157553.25;;;11.18;100.00
3590;BME280;1809;48.470;9.226;2023-05-16T05:22:30;157538.88;;;11.12;100.00
3590;BME280;1809;48.470;9.226;2023-05-16T05:24:56;157527.16;;;11.08;100.00
3590;BME280;1809;48.470;9.226;2023-05-16T05:27:21;157507.53;;;11.00;100.00
3590;BME280;1809;48.470;9.226;2023-05-16T05:29:46;157527.16;;;11.08;100.00
3590;BME280;1809;48.470;9.226;2023-05-16T05:32:12;157558.53;;;11.20;100.00
3590;BME280;1809;48.470;9.226;2023-05-16T05:34:37;157555.88;;;11.19;100.00
3590;BME280;1809;48.470;9.226;2023-05-16T05:37:03;157561.09;;;11.21;100.00
3590;BME280;1809;48.470;9.226;2023-05-16T05:39:28;157558.53;;;11.20;100.00
3590;BME280;1809;48.470;9.226;2023-05-16T05:41:53;157568.94;;;11.24;100.00
3590;BME280;1809;48.470;9.226;2023-05-16T05:44:19;157555.88;;;11.19;100.00
3590;BME280;1809;48.470;9.226;2023-05-16T05:46:44;157553.25;;;11.18;100.00
3590;BME280;1809;48.470;9.226;2023-05-16T05:49:10;157548.06;;;11.16;100.00
3590;BME280;1809;48.470;9.226;2023-05-16T05:51:35;157519.31;;;11.05;100.00
3590;BME280;1809;48.470;9.226;2023-05-16T05:54:01;157502.31;;;10.98;100.00
3590;BME280;1809;48.470;9.226;2023-05-16T05:56:27;157507.53;;;11.00;100.00
3590;BME280;1809;48.470;9.226;2023-05-16T05:58:52;157516.69;;;11.04;100.00
3590;BME280;1809;48.470;9.226;2023-05-16T06:01:17;157512.72;;;11.02;100.00
3590;BME280;1809;48.470;9.226;2023-05-16T06:03:45;157498.38;;;10.97;100.00
3590;BME280;1809;48.470;9.226;2023-05-16T06:06:10;157510.16;;;11.01;100.00
3590;BME280;1809;48.470;9.226;2023-05-16T06:08:36;157504.91;;;10.99;100.00
3590;BME280;1809;48.470;9.226;2023-05-16T06:11:01;157480.09;;;10.90;100.00
3590;BME280;1809;48.470;9.226;2023-05-16T06:13:26;157482.69;;;10.91;100.00
3590;BME280;1809;48.470;9.226;2023-05-16T06:15:53;157476.16;;;10.88;100.00
3590;BME280;1809;48.470;9.226;2023-05-16T06:18:19;157490.53;;;10.94;100.00
3590;BME280;1809;48.470;9.226;2023-05-16T06:20:44;157493.16;;;10.95;100.00
3590;BME280;1809;48.470;9.226;2023-05-16T06:23:10;157493.16;;;10.95;100.00
3590;BME280;1809;48.470;9.226;2023-05-16T06:25:35;157508.84;;;11.01;100.00
3590;BME280;1809;48.470;9.226;2023-05-16T06:28:00;157542.84;;;11.14;100.00
3590;BME280;1809;48.470;9.226;2023-05-16T06:30:26;157519.31;;;11.05;100.00
3590;BME280;1809;48.470;9.226;2023-05-16T06:32:51;157514.06;;;11.03;100.00
3590;BME280;1809;48.470;9.226;2023-05-16T06:35:16;157514.06;;;11.03;100.00
3590;BME280;1809;48.470;9.226;2023-05-16T06:37:42;157495.78;;;10.96;100.00
3590;BME280;1809;48.470;9.226;2023-05-16T06:40:07;157508.84;;;11.01;100.00
3590;BME280;1809;48.470;9.226;2023-05-16T06:42:33;157511.47;;;11.02;100.00
3590;BME280;1809;48.470;9.226;2023-05-16T06:44:58;157531.06;;;11.09;100.00
3590;BME280;1809;48.470;9.226;2023-05-16T06:47:24;157562.41;;;11.21;100.00
3590;BME280;1809;48.470;9.226;2023-05-16T06:49:49;157536.31;;;11.11;100.00
3590;BME280;1809;48.470;9.226;2023-05-16T06:52:15;157532.38;;;11.10;100.00
3590;BME280;1809;48.470;9.226;2023-05-16T06:54:40;157532.38;;;11.10;100.00
3590;BME280;1809;48.470;9.226;2023-05-16T06:57:06;157542.84;;;11.14;100.00
3590;BME280;1809;48.470;9.226;2023-05-16T06:59:33;157540.22;;;11.13;100.00
3590;BME280;1809;48.470;9.226;2023-05-16T07:01:59;157563.72;;;11.22;100.00
3590;BME280;1809;48.470;9.226;2023-05-16T07:04:24;157544.16;;;11.14;100.00
3590;BME280;1809;48.470;9.226;2023-05-16T07:06:50;157566.38;;;11.23;100.00
3590;BME280;1809;48.470;9.226;2023-05-16T07:09:15;157550.69;;;11.17;100.00
3590;BME280;1809;48.470;9.226;2023-05-16T07:11:41;157576.84;;;11.27;100.00
3590;BME280;1809;48.470;9.226;2023-05-16T07:14:06;157584.69;;;11.30;100.00
3590;BME280;1809;48.470;9.226;2023-05-16T07:16:32;157579.41;;;11.28;100.00
3590;BME280;1809;48.470;9.226;2023-05-16T07:18:57;157610.78;;;11.40;100.00
3590;BME280;1809;48.470;9.226;2023-05-16T07:21:22;157627.78;;;11.47;100.00
3590;BME280;1809;48.470;9.226;2023-05-16T07:23:47;157657.84;;;11.58;100.00
3590;BME280;1809;48.470;9.226;2023-05-16T07:26:13;157685.34;;;11.69;100.00
3590;BME280;1809;48.470;9.226;2023-05-16T07:28:38;157672.28;;;11.64;100.00
3590;BME280;1809;48.470;9.226;2023-05-16T07:31:04;157668.34;;;11.62;100.00
3590;BME280;1809;48.470;9.226;2023-05-16T07:33:30;157668.34;;;11.62;100.00
3590;BME280;1809;48.470;9.226;2023-05-16T07:35:56;157673.59;;;11.64;100.00
3590;BME280;1809;48.470;9.226;2023-05-16T07:38:21;157708.94;;;11.78;100.00
3590;BME280;1809;48.470;9.226;2023-05-16T07:40:46;157676.19;;;11.65;100.00
3590;BME280;1809;48.470;9.226;2023-05-16T07:43:12;157665.69;;;11.61;100.00
3590;BME280;1809;48.470;9.226;2023-05-16T07:45:37;157655.28;;;11.57;100.00
3590;BME280;1809;48.470;9.226;2023-05-16T07:48:03;157670.97;;;11.63;100.00
3590;BME280;1809;48.470;9.226;2023-05-16T07:50:28;157680.13;;;11.67;100.00
3590;BME280;1809;48.470;9.226;2023-05-16T07:52:53;157705.03;;;11.76;100.00
3590;BME280;1809;48.470;9.226;2023-05-16T07:55:19;157720.72;;;11.82;100.00
3590;BME280;1809;48.470;9.226;2023-05-16T07:57:46;157668.34;;;11.62;100.00
3590;BME280;1809;48.470;9.226;2023-05-16T08:00:12;157668.34;;;11.62;100.00
3590;BME280;1809;48.470;9.226;2023-05-16T08:02:38;157665.69;;;11.61;100.00
3590;BME280;1809;48.470;9.226;2023-05-16T08:05:03;157651.31;;;11.56;100.00
3590;BME280;1809;48.470;9.226;2023-05-16T08:07:29;157647.44;;;11.54;100.00
3590;BME280;1809;48.470;9.226;2023-05-16T08:09:55;157660.50;;;11.59;100.00
3590;BME280;1809;48.470;9.226;2023-05-16T08:12:21;157660.50;;;11.59;100.00
3590;BME280;1809;48.470;9.226;2023-05-16T08:14:46;157670.97;;;11.63;100.00
3590;BME280;1809;48.470;9.226;2023-05-16T08:17:11;157663.13;;;11.60;100.00
3590;BME280;1809;48.470;9.226;2023-05-16T08:19:37;157322.06;;;11.64;100.00
3590;BME280;1809;48.470;9.226;2023-05-16T08:22:05;157697.03;;;11.74;100.00
3590;BME280;1809;48.470;9.226;2023-05-16T08:24:30;157349.47;;;11.75;100.00
3590;BME280;1809;48.470;9.226;2023-05-16T08:26:56;157000.63;;;11.75;100.00
3590;BME280;1809;48.470;9.226;2023-05-16T08:29:21;157014.94;;;11.80;100.00
3590;BME280;1809;48.470;9.226;2023-05-16T08:31:47;156646.63;;;11.73;100.00
3590;BME280;1809;48.470;9.226;2023-05-16T08:34:12;155954.28;;;11.75;100.00
3590;BME280;1809;48.470;9.226;2023-05-16T08:36:37;155244.03;;;11.70;100.00
3590;BME280;1809;48.470;9.226;2023-05-16T08:39:03;154548.13;;;11.70;100.00
3590;BME280;1809;48.470;9.226;2023-05-16T08:41:29;154176.47;;;11.61;100.00
3590;BME280;1809;48.470;9.226;2023-05-16T08:43:55;154173.94;;;11.60;100.00
3590;BME280;1809;48.470;9.226;2023-05-16T08:46:22;154519.88;;;11.59;100.00
3590;BME280;1809;48.470;9.226;2023-05-16T08:48:51;155577.16;;;11.64;100.00
3590;BME280;1809;48.470;9.226;2023-05-16T08:51:18;155202.78;;;11.54;100.00
3590;BME280;1809;48.470;9.226;2023-05-16T08:53:49;156267.97;;;11.61;100.00
3590;BME280;1809;48.470;9.226;2023-05-16T08:56:16;153803.81;;;11.52;100.00
3590;BME280;1809;48.470;9.226;2023-05-16T08:58:42;151344.56;;;11.43;100.00
3590;BME280;1809;48.470;9.226;2023-05-16T09:01:08;149962.34;;;11.47;100.00
3590;BME280;1809;48.470;9.226;2023-05-16T09:03:37;148578.03;;;11.50;100.00
3590;BME280;1809;48.470;9.226;2023-05-16T09:06:06;147203.88;;;11.57;100.00
3590;BME280;1809;48.470;9.226;2023-05-16T09:08:31;145813.03;;;11.57;100.00
3590;BME280;1809;48.470;9.226;2023-05-16T09:10:57;144437.06;;;11.63;100.00
3590;BME280;1809;48.470;9.226;2023-05-16T09:13:23;144420.31;;;11.56;100.00
3590;BME280;1809;48.470;9.226;2023-05-16T09:16:27;145121.38;;;11.59;100.00
3590;BME280;1809;48.470;9.226;2023-05-16T09:18:55;146152.22;;;11.54;100.00
3590;BME280;1809;48.470;9.226;2023-05-16T09:21:21;146141.31;;;11.49;100.00
3590;BME280;1809;48.470;9.226;2023-05-16T09:23:48;147177.03;;;11.46;100.00
3590;BME280;1809;48.470;9.226;2023-05-16T09:26:14;147513.81;;;11.42;100.00
3590;BME280;1809;48.470;9.226;2023-05-16T09:28:40;148227.72;;;11.49;100.00
3590;BME280;1809;48.470;9.226;2023-05-16T09:31:25;148560.81;;;11.43;100.00
3590;BME280;1809;48.470;9.226;2023-05-16T09:33:52;149594.56;;;11.39;100.00
3590;BME280;1809;48.470;9.226;2023-05-16T09:36:17;150966.44;;;11.31;100.00
3590;BME280;1809;48.470;9.226;2023-05-16T09:38:43;152717.00;;;11.35;100.00
3590;BME280;1809;48.470;9.226;2023-05-16T09:41:09;153403.28;;;11.31;100.00
3590;BME280;1809;48.470;9.226;2023-05-16T09:43:37;154430.19;;;11.24;100.00
3590;BME280;1809;48.470;9.226;2023-05-16T09:46:03;154786.25;;;11.27;100.00
3590;BME280;1809;48.470;9.226;2023-05-16T09:48:29;155121.72;;;11.22;100.00
3590;BME280;1809;48.470;9.226;2023-05-16T09:50:56;155129.44;;;11.25;100.00
3590;BME280;1809;48.470;9.226;2023-05-16T09:53:28;154784.97;;;11.26;100.00
3590;BME280;1809;48.470;9.226;2023-05-16T09:56:13;155155.19;;;11.35;100.00
3590;BME280;1809;48.470;9.226;2023-05-16T09:58:40;153403.28;;;11.31;100.00
3590;BME280;1809;48.470;9.226;2023-05-16T10:01:07;152714.47;;;11.34;100.00
3590;BME280;1809;48.470;9.226;2023-05-16T10:03:37;152380.16;;;11.40;100.00
3590;BME280;1809;48.470;9.226;2023-05-16T10:06:04;152055.94;;;11.49;100.00
3590;BME280;1809;48.470;9.226;2023-05-16T10:08:32;150643.44;;;11.41;100.00
3590;BME280;1809;48.470;9.226;2023-05-16T10:11:01;149246.69;;;11.39;100.00
3590;BME280;1809;48.470;9.226;2023-05-16T10:13:31;147490.59;;;11.32;100.00
3590;BME280;1809;48.470;9.226;2023-05-16T10:15:58;147169.75;;;11.43;100.00
3590;BME280;1809;48.470;9.226;2023-05-16T10:18:29;146478.06;;;11.45;100.00
3590;BME280;1809;48.470;9.226;2023-05-16T10:20:57;145419.66;;;11.38;100.00
3590;BME280;1809;48.470;9.226;2023-05-16T10:23:25;145063.75;;;11.34;100.00
3590;BME280;1809;48.470;9.226;2023-05-16T10:25:51;145064.97;;;11.35;100.00
3590;BME280;1809;48.470;9.226;2023-05-16T10:28:16;146124.41;;;11.42;100.00
3590;BME280;1809;48.470;9.226;2023-05-16T10:30:43;146132.88;;;11.46;100.00
3590;BME280;1809;48.470;9.226;2023-05-16T10:33:17;146140.13;;;11.49;100.00
3590;BME280;1809;48.470;9.226;2023-05-16T10:35:43;145805.78;;;11.54;100.00
3590;BME280;1809;48.470;9.226;2023-05-16T10:38:10;144766.63;;;11.56;100.00
3590;BME280;1809;48.470;9.226;2023-05-16T10:40:40;144739.09;;;11.44;100.00
3590;BME280;1809;48.470;9.226;2023-05-16T10:43:07;145452.16;;;11.52;100.00
3590;BME280;1809;48.470;9.226;2023-05-16T10:45:33;143703.97;;;11.47;100.00
3590;BME280;1809;48.470;9.226;2023-05-16T10:48:01;144072.84;;;11.56;100.00
3590;BME280;1809;48.470;9.226;2023-05-16T10:50:44;145079.38;;;11.41;100.00
3590;BME280;1809;48.470;9.226;2023-05-16T11:06:24;147944.88;;;11.76;100.00
3590;BME280;1809;48.470;9.226;2023-05-16T11:14:21;145197.13;;;11.91;100.00
3590;BME280;1809;48.470;9.226;2023-05-16T11:19:41;145880.69;;;11.85;100.00
3590;BME280;1809;48.470;9.226;2023-05-16T11:22:08;147615.25;;;11.83;100.00
3590;BME280;1809;48.470;9.226;2023-05-16T11:24:35;147611.59;;;11.82;100.00
3590;BME280;1809;48.470;9.226;2023-05-16T11:27:01;146896.25;;;11.74;100.00
3590;BME280;1809;48.470;9.226;2023-05-16T11:29:30;148280.56;;;11.71;100.00
3590;BME280;1809;48.470;9.226;2023-05-16T11:32:02;149000.00;;;11.80;100.00
3590;BME280;1809;48.470;9.226;2023-05-16T11:34:29;149370.34;;;11.90;100.00
3590;BME280;1809;48.470;9.226;2023-05-16T11:36:55;149017.28;;;11.88;100.00
3590;BME280;1809;48.470;9.226;2023-05-16T11:39:20;149014.78;;;11.86;100.00
3590;BME280;1809;48.470;9.226;2023-05-16T11:41:48;149395.09;;;12.00;100.00
3590;BME280;1809;48.470;9.226;2023-05-16T11:44:13;148398.47;;;12.19;100.00
3590;BME280;1809;48.470;9.226;2023-05-16T11:46:39;146006.25;;;12.38;100.00
3590;BME280;1809;48.470;9.226;2023-05-16T11:49:06;143610.59;;;12.55;100.00
3590;BME280;1809;48.470;9.226;2023-05-16T11:51:31;140188.13;;;12.79;100.00
3590;BME280;1809;48.470;9.226;2023-05-16T11:53:59;134316.13;;;12.95;100.00
3590;BME280;1809;48.470;9.226;2023-05-16T11:56:25;130855.66;;;13.01;100.00
3590;BME280;1809;48.470;9.226;2023-05-16T11:58:51;127058.69;;;13.09;100.00
3590;BME280;1809;48.470;9.226;2023-05-16T12:01:17;127397.97;;;13.06;100.00
3590;BME280;1809;48.470;9.226;2023-05-16T12:03:42;125679.56;;;13.13;100.00
3590;BME280;1809;48.470;9.226;2023-05-16T12:06:07;126405.00;;;13.28;100.00
3590;BME280;1809;48.470;9.226;2023-05-16T12:08:33;126067.63;;;13.33;100.00
3590;BME280;1809;48.470;9.226;2023-05-16T12:10:59;122928.50;;;13.23;100.00
3590;BME280;1809;48.470;9.226;2023-05-16T12:13:24;122916.38;;;13.17;100.00
3590;BME280;1809;48.470;9.226;2023-05-16T12:15:51;122238.91;;;13.24;100.00
3590;BME280;1809;48.470;9.226;2023-05-16T12:18:19;120531.75;;;13.36;100.00
3590;BME280;1809;48.470;9.226;2023-05-16T12:20:45;120169.78;;;13.28;100.00
3590;BME280;1809;48.470;9.226;2023-05-16T12:23:11;123287.03;;;13.29;100.00
3590;BME280;1809;48.470;9.226;2023-05-16T12:25:37;121609.44;;;13.56;100.00
3590;BME280;1809;48.470;9.226;2023-05-16T12:28:08;115730.47;;;13.59;100.00
3590;BME280;1809;48.470;9.226;2023-05-16T12:30:34;110915.00;;;13.71;100.00
3590;BME280;1809;48.470;9.226;2023-05-16T12:33:01;111570.19;;;13.52;100.00
3590;BME280;1809;48.470;9.226;2023-05-16T12:35:32;116066.78;;;13.54;100.00
3590;BME280;1809;48.470;9.226;2023-05-16T12:37:58;122930.50;;;13.24;100.00
3590;BME280;1809;48.470;9.226;2023-05-16T12:40:27;133651.44;;;13.09;100.00
3590;BME280;1809;48.470;9.226;2023-05-16T12:42:53;138497.63;;;13.01;100.00
3590;BME280;1809;48.470;9.226;2023-05-16T12:45:19;140907.00;;;12.89;100.00
3590;BME280;1809;48.470;9.226;2023-05-16T12:47:46;141502.28;;;12.46;100.00
3590;BME280;1809;48.470;9.226;2023-05-16T12:50:12;143573.81;;;12.39;100.00
3590;BME280;1809;48.470;9.226;2023-05-16T12:52:49;144299.47;;;12.52;100.00
3590;BME280;1809;48.470;9.226;2023-05-16T12:55:16;144262.50;;;12.36;100.00
3590;BME280;1809;48.470;9.226;2023-05-16T12:57:42;145005.22;;;12.56;100.00
3590;BME280;1809;48.470;9.226;2023-05-16T13:00:12;143961.00;;;12.56;100.00
3590;BME280;1809;48.470;9.226;2023-05-16T13:02:38;143227.13;;;12.40;100.00
3590;BME280;1809;48.470;9.226;2023-05-16T13:05:04;144549.50;;;12.11;100.00
3590;BME280;1809;48.470;9.226;2023-05-16T13:07:31;146624.88;;;12.06;100.00
3590;BME280;1809;48.470;9.226;2023-05-16T13:09:56;148322.31;;;11.88;100.00
3590;BME280;1809;48.470;9.226;2023-05-16T13:12:22;150405.09;;;11.85;100.00
3590;BME280;1809;48.470;9.226;2023-05-16T13:14:51;152467.38;;;11.74;100.00
3590;BME280;1809;48.470;9.226;2023-05-16T13:17:16;154868.38;;;11.59;100.00
3590;BME280;1809;48.470;9.226;2023-05-16T13:19:41;157636.97;;;11.50;100.00
3590;BME280;1809;48.470;9.226;2023-05-16T13:22:07;157613.44;;;11.41;100.00
3590;BME280;1809;48.470;9.226;2023-05-16T13:24:32;157618.63;;;11.43;100.00
3590;BME280;1809;48.470;9.226;2023-05-16T13:26:58;157612.09;;;11.41;100.00